createdAt,value
2022-09-09T00:02:05.522Z,24.00
2022-09-09T00:04:37.950Z,23.90
2022-09-09T00:07:07.193Z,23.90
2022-09-09T00:09:50.138Z,23.80
2022-09-09T00:12:27.147Z,23.80
2022-09-09T00:15:21.868Z,23.90
2022-09-09T00:18:02.997Z,23.80
2022-09-09T00:20:36.866Z,23.80
2022-09-09T00:23:34.116Z,23.70
2022-09-09T00:26:12.725Z,23.70
2022-09-09T00:28:46.843Z,23.80
2022-09-09T00:31:28.861Z,23.80
2022-09-09T00:33:59.593Z,23.90
2022-09-09T00:36:29.960Z,23.80
2022-09-09T00:39:00.641Z,23.80
2022-09-09T00:41:35.919Z,23.70
2022-09-09T00:44:26.562Z,23.70
2022-09-09T00:47:13.106Z,23.60
2022-09-09T00:50:16.656Z,23.60
2022-09-09T00:52:58.533Z,23.60
2022-09-09T00:55:37.063Z,23.60
2022-09-09T00:58:03.902Z,23.60
2022-09-09T01:00:48.479Z,23.40
2022-09-09T01:03:33.235Z,23.30
2022-09-09T01:06:24.742Z,23.20
2022-09-09T01:08:51.458Z,23.30
2022-09-09T01:11:44.145Z,23.30
2022-09-09T01:14:35.710Z,23.20
2022-09-09T01:17:25.560Z,23.20
2022-09-09T01:20:07.454Z,23.20
2022-09-09T01:22:58.061Z,23.20
2022-09-09T01:25:50.836Z,23.10
2022-09-09T01:28:23.606Z,23.10
2022-09-09T01:30:50.899Z,23.20
2022-09-09T01:33:19.208Z,23.30
2022-09-09T01:36:10.465Z,23.30
2022-09-09T01:38:38.002Z,23.30
2022-09-09T01:41:05.338Z,23.20
2022-09-09T01:43:32.184Z,23.30
2022-09-09T01:46:02.001Z,23.40
2022-09-09T01:48:29.380Z,23.30
2022-09-09T01:50:56.133Z,23.40
2022-09-09T01:53:23.610Z,23.40
2022-09-09T01:55:58.093Z,23.40
2022-09-09T01:59:06.223Z,23.30
2022-09-09T02:01:51.157Z,23.30
2022-09-09T02:04:37.623Z,23.30
2022-09-09T02:07:13.597Z,23.30
2022-09-09T02:09:45.199Z,23.30
2022-09-09T02:12:18.422Z,23.20
2022-09-09T02:14:52.692Z,23.30
2022-09-09T02:17:35.088Z,23.30
2022-09-09T02:20:08.968Z,23.30
2022-09-09T02:22:40.456Z,23.20
2022-09-09T02:25:11.264Z,23.20
2022-09-09T02:27:37.986Z,23.30
2022-09-09T02:30:06.100Z,23.20
2022-09-09T02:32:36.537Z,23.20
2022-09-09T02:35:09.860Z,23.20
2022-09-09T02:37:39.896Z,23.10
2022-09-09T02:40:09.481Z,23.20
2022-09-09T02:42:44.261Z,23.20
2022-09-09T02:45:17.359Z,23.10
2022-09-09T02:47:47.629Z,23.10
2022-09-09T02:50:23.829Z,23.00
2022-09-09T02:53:02.275Z,23.00
2022-09-09T02:55:49.515Z,23.00
2022-09-09T02:58:18.535Z,23.10
2022-09-09T03:00:50.180Z,23.10
2022-09-09T03:03:18.864Z,23.10
2022-09-09T03:05:46.179Z,23.10
2022-09-09T03:08:14.024Z,23.10
2022-09-09T03:10:40.903Z,23.10
2022-09-09T03:13:08.966Z,23.00
2022-09-09T03:15:36.307Z,23.10
2022-09-09T03:18:03.306Z,23.10
2022-09-09T03:20:31.096Z,23.10
2022-09-09T03:22:59.916Z,23.10
2022-09-09T03:25:27.233Z,23.00
2022-09-09T03:27:55.862Z,23.10
2022-09-09T03:30:27.327Z,23.10
2022-09-09T03:32:54.008Z,23.20
2022-09-09T03:35:20.826Z,23.20
2022-09-09T03:37:47.561Z,23.20
2022-09-09T03:40:14.865Z,23.10
2022-09-09T03:42:41.712Z,23.10
2022-09-09T03:45:11.477Z,23.00
2022-09-09T03:47:38.399Z,23.00
2022-09-09T03:50:09.359Z,22.90
2022-09-09T03:52:41.645Z,23.00
2022-09-09T03:55:09.095Z,23.00
2022-09-09T03:57:36.880Z,23.10
2022-09-09T04:00:06.745Z,23.10
2022-09-09T04:02:33.608Z,23.10
2022-09-09T04:05:00.670Z,23.10
2022-09-09T04:07:29.119Z,23.00
2022-09-09T04:09:56.378Z,23.00
2022-09-09T04:12:23.412Z,22.90
2022-09-09T04:14:50.103Z,22.90
2022-09-09T04:17:17.069Z,22.90
2022-09-09T04:19:43.731Z,22.90
2022-09-09T04:22:10.687Z,22.90
2022-09-09T04:24:37.734Z,22.70
2022-09-09T04:27:04.459Z,22.70
2022-09-09T04:29:31.091Z,22.60
2022-09-09T04:31:57.818Z,22.70
2022-09-09T04:34:24.720Z,22.80
2022-09-09T04:36:52.824Z,22.80
2022-09-09T04:39:20.653Z,22.80
2022-09-09T04:41:48.108Z,22.80
2022-09-09T04:44:15.111Z,22.80
2022-09-09T04:46:42.477Z,22.80
2022-09-09T04:49:13.137Z,22.70
2022-09-09T04:51:41.800Z,22.70
2022-09-09T04:54:08.539Z,22.70
2022-09-09T04:56:35.176Z,22.70
2022-09-09T04:59:03.842Z,22.70
2022-09-09T05:01:30.639Z,22.80
2022-09-09T05:03:57.305Z,22.70
2022-09-09T05:06:24.139Z,22.70
2022-09-09T05:08:51.415Z,22.60
2022-09-09T05:11:19.293Z,22.70
2022-09-09T05:13:46.769Z,22.70
2022-09-09T05:16:15.094Z,22.70
2022-09-09T05:18:43.929Z,22.70
2022-09-09T05:21:15.873Z,22.70
2022-09-09T05:23:42.768Z,22.70
2022-09-09T05:26:17.367Z,22.70
2022-09-09T05:28:44.565Z,22.60
2022-09-09T05:31:15.302Z,22.50
2022-09-09T05:33:44.012Z,22.60
2022-09-09T05:36:16.093Z,22.70
2022-09-09T05:38:43.522Z,22.70
2022-09-09T05:41:12.210Z,22.70
2022-09-09T05:43:39.617Z,22.70
2022-09-09T05:46:09.089Z,22.80
2022-09-09T05:48:41.060Z,22.80
2022-09-09T05:51:11.775Z,22.80
2022-09-09T05:53:39.673Z,22.80
2022-09-09T05:56:08.605Z,22.80
2022-09-09T05:58:35.924Z,22.80
2022-09-09T06:01:11.680Z,22.90
2022-09-09T06:03:40.430Z,22.90
2022-09-09T06:06:13.157Z,22.90
2022-09-09T06:08:43.514Z,23.00
2022-09-09T06:11:16.224Z,23.00
2022-09-09T06:13:43.105Z,23.00
2022-09-09T06:16:13.223Z,22.80
2022-09-09T06:18:41.521Z,22.90
2022-09-09T06:21:15.769Z,22.90
2022-09-09T06:23:42.966Z,22.90
2022-09-09T06:26:19.055Z,22.90
2022-09-09T06:28:48.606Z,22.90
2022-09-09T06:31:28.059Z,22.90
2022-09-09T06:33:57.295Z,23.00
2022-09-09T06:36:26.876Z,23.00
2022-09-09T06:38:53.725Z,22.90
2022-09-09T06:41:22.169Z,22.90
2022-09-09T06:43:49.041Z,22.90
2022-09-09T06:46:21.304Z,22.80
2022-09-09T06:48:48.046Z,22.90
2022-09-09T06:51:23.263Z,23.00
2022-09-09T06:53:55.332Z,22.90
2022-09-09T06:56:31.190Z,23.00
2022-09-09T06:59:01.997Z,23.00
2022-09-09T07:01:31.600Z,23.00
2022-09-09T07:04:02.915Z,23.00
2022-09-09T07:06:32.252Z,23.10
2022-09-09T07:09:01.859Z,23.30
2022-09-09T07:11:34.271Z,23.30
2022-09-09T07:14:01.956Z,23.50
2022-09-09T07:16:30.331Z,23.50
2022-09-09T07:18:59.828Z,23.50
2022-09-09T07:21:28.372Z,23.40
2022-09-09T07:23:56.076Z,23.50
2022-09-09T07:26:26.123Z,23.60
2022-09-09T07:28:53.355Z,23.80
2022-09-09T07:31:22.539Z,23.80
2022-09-09T07:33:49.666Z,23.90
2022-09-09T07:36:32.651Z,23.90
2022-09-09T07:39:02.883Z,24.00
2022-09-09T07:41:32.271Z,24.00
2022-09-09T07:43:59.380Z,24.10
2022-09-09T07:46:27.380Z,24.00
2022-09-09T07:48:56.806Z,24.00
2022-09-09T07:51:25.385Z,23.80
2022-09-09T07:54:01.029Z,23.90
2022-09-09T07:56:29.377Z,23.90
2022-09-09T07:58:57.689Z,24.00
2022-09-09T08:01:30.989Z,24.10
2022-09-09T08:04:06.593Z,24.30
2022-09-09T08:06:39.205Z,24.40
2022-09-09T08:09:07.216Z,24.40
2022-09-09T08:11:38.807Z,24.40
2022-09-09T08:14:08.523Z,24.40
2022-09-09T08:16:37.913Z,24.30
2022-09-09T08:19:06.550Z,24.10
2022-09-09T08:21:34.178Z,24.00
2022-09-09T08:24:02.224Z,24.00
2022-09-09T08:26:31.645Z,24.10
2022-09-09T08:29:00.394Z,24.20
2022-09-09T08:31:33.108Z,24.30
2022-09-09T08:34:01.046Z,24.40
2022-09-09T08:36:30.383Z,24.40
2022-09-09T08:38:58.684Z,24.40
2022-09-09T08:41:25.552Z,24.60
2022-09-09T08:44:00.006Z,24.70
2022-09-09T08:46:43.761Z,24.80
2022-09-09T08:49:16.305Z,24.90
2022-09-09T08:51:43.222Z,24.90
2022-09-09T08:54:10.893Z,24.80
2022-09-09T08:56:37.704Z,24.70
2022-09-09T08:59:06.134Z,24.80
2022-09-09T09:02:00.021Z,24.90
2022-09-09T09:04:49.234Z,25.10
2022-09-09T09:07:18.911Z,25.20
2022-09-09T09:10:05.047Z,25.20
2022-09-09T09:12:45.392Z,25.20
2022-09-09T09:15:28.342Z,25.10
2022-09-09T09:17:58.454Z,25.00
2022-09-09T09:20:56.654Z,25.10
2022-09-09T09:23:27.246Z,25.20
2022-09-09T09:25:59.426Z,25.40
2022-09-09T09:28:31.921Z,25.60
2022-09-09T09:31:09.802Z,25.70
2022-09-09T09:33:45.101Z,26.00
2022-09-09T09:36:11.936Z,26.20
2022-09-09T09:41:43.966Z,26.30
2022-09-09T09:44:31.968Z,26.40
2022-09-09T09:47:23.012Z,26.40
2022-09-09T09:49:57.429Z,26.50
2022-09-09T09:52:29.682Z,26.90
2022-09-09T09:54:58.345Z,27.30
2022-09-09T09:57:30.983Z,27.40
2022-09-09T10:00:19.241Z,27.30
2022-09-09T10:02:47.364Z,27.10
2022-09-09T10:05:22.023Z,27.00
2022-09-09T10:08:10.428Z,27.00
2022-09-09T10:11:05.047Z,27.00
2022-09-09T10:13:56.616Z,27.10
2022-09-09T10:17:14.206Z,27.30
2022-09-09T10:19:52.075Z,27.40
2022-09-09T10:22:28.658Z,27.40
2022-09-09T10:25:23.268Z,27.40
2022-09-09T10:28:06.557Z,27.40
2022-09-09T10:31:00.166Z,27.60
2022-09-09T10:33:57.312Z,28.00
2022-09-09T10:36:29.367Z,28.00
2022-09-09T10:39:24.190Z,28.10
2022-09-09T10:42:03.328Z,28.20
2022-09-09T10:44:52.935Z,28.20
2022-09-09T10:47:52.429Z,28.30
2022-09-09T10:51:00.636Z,28.60
2022-09-09T10:53:48.706Z,28.80
2022-09-09T10:56:18.995Z,28.70
2022-09-09T10:58:52.866Z,28.70
2022-09-09T11:01:35.126Z,28.80
2022-09-09T11:04:20.551Z,28.90
2022-09-09T11:06:53.383Z,29.10
2022-09-09T11:09:25.034Z,29.30
2022-09-09T11:11:57.140Z,29.50
2022-09-09T11:14:37.431Z,29.70
2022-09-09T11:17:13.826Z,30.00
2022-09-09T11:19:44.533Z,30.50
2022-09-09T11:22:32.062Z,30.80
2022-09-09T11:25:01.295Z,31.10
2022-09-09T11:27:43.685Z,31.50
2022-09-09T11:30:51.225Z,31.60
2022-09-09T11:33:36.485Z,31.50
2022-09-09T11:36:41.048Z,31.70
2022-09-09T11:39:25.938Z,32.10
2022-09-09T11:41:52.654Z,32.50
2022-09-09T11:44:31.421Z,32.90
2022-09-09T11:46:58.190Z,33.00
2022-09-09T11:49:41.096Z,33.30
2022-09-09T11:52:38.012Z,33.60
2022-09-09T11:55:24.544Z,33.90
2022-09-09T11:58:00.538Z,34.10
2022-09-09T12:00:41.090Z,34.50
2022-09-09T12:04:03.082Z,34.20
2022-09-09T12:06:42.241Z,33.80
2022-09-09T12:09:18.168Z,34.20
2022-09-09T12:11:45.005Z,34.90
2022-09-09T12:14:36.932Z,35.60
2022-09-09T12:17:15.807Z,35.60
2022-09-09T12:19:43.122Z,36.00
2022-09-09T12:22:22.245Z,36.40
2022-09-09T12:25:23.553Z,36.50
2022-09-09T12:28:24.675Z,37.10
2022-09-09T12:31:03.425Z,37.90
2022-09-09T12:33:40.415Z,38.40
2022-09-09T12:36:13.362Z,39.10
2022-09-09T12:38:42.458Z,39.50
2022-09-09T12:41:24.238Z,40.00
2022-09-09T12:43:51.779Z,41.00
2022-09-09T12:46:43.200Z,41.30
2022-09-09T12:49:40.239Z,42.00
2022-09-09T12:52:22.519Z,42.20
2022-09-09T12:54:51.534Z,42.40
2022-09-09T12:57:18.507Z,42.70
2022-09-09T12:59:46.220Z,42.90
2022-09-09T13:02:26.314Z,42.80
2022-09-09T13:04:53.951Z,42.30
2022-09-09T13:07:22.576Z,42.80
2022-09-09T13:09:50.207Z,43.20
2022-09-09T13:12:23.635Z,43.40
2022-09-09T13:14:54.590Z,43.50
2022-09-09T13:17:29.870Z,42.10
2022-09-09T13:19:57.391Z,41.90
2022-09-09T13:22:27.040Z,42.50
2022-09-09T13:25:19.550Z,42.80
2022-09-09T13:28:04.549Z,42.50
2022-09-09T13:30:37.900Z,43.70
2022-09-09T13:33:10.436Z,43.60
2022-09-09T13:35:51.612Z,43.50
2022-09-09T13:38:18.917Z,44.10
2022-09-09T13:41:05.510Z,44.70
2022-09-09T13:43:45.326Z,43.80
2022-09-09T13:46:41.220Z,40.90
2022-09-09T13:49:11.107Z,37.80
2022-09-09T13:51:41.029Z,37.20
2022-09-09T13:54:10.899Z,38.60
2022-09-09T13:56:39.662Z,39.60
2022-09-09T13:59:11.547Z,40.60
2022-09-09T14:01:38.495Z,41.60
2022-09-09T14:04:08.022Z,40.80
2022-09-09T14:06:39.243Z,38.80
2022-09-09T14:09:13.979Z,36.80
2022-09-09T14:11:41.548Z,35.00
2022-09-09T14:14:08.615Z,33.90
2022-09-09T14:16:35.695Z,33.00
2022-09-09T14:19:02.574Z,32.50
2022-09-09T14:21:29.657Z,32.00
2022-09-09T14:23:58.966Z,31.60
2022-09-09T14:26:26.189Z,31.40
2022-09-09T14:28:55.586Z,31.20
2022-09-09T14:31:23.758Z,31.20
2022-09-09T14:33:51.755Z,30.90
2022-09-09T14:36:18.565Z,30.80
2022-09-09T14:38:45.259Z,30.70
2022-09-09T14:41:14.042Z,30.80
2022-09-09T14:43:40.955Z,30.70
2022-09-09T14:46:08.970Z,30.50
2022-09-09T14:48:36.745Z,30.50
2022-09-09T14:51:10.937Z,30.40
2022-09-09T14:53:38.747Z,30.30
2022-09-09T14:56:14.493Z,30.20
2022-09-09T14:58:41.741Z,30.10
2022-09-09T15:01:11.726Z,30.20
2022-09-09T15:03:40.392Z,30.10
2022-09-09T15:06:14.924Z,30.00
2022-09-09T15:08:44.701Z,29.80
2022-09-09T15:11:12.628Z,29.80
2022-09-09T15:13:40.869Z,29.70
2022-09-09T15:16:18.734Z,29.70
2022-09-09T15:18:47.111Z,29.70
2022-09-09T15:21:20.154Z,29.50
2022-09-09T15:23:48.497Z,29.80
2022-09-09T15:26:16.353Z,32.10
2022-09-09T15:28:44.616Z,34.90
2022-09-09T15:31:24.405Z,37.30
2022-09-09T15:34:01.860Z,39.30
2022-09-09T15:36:35.482Z,40.70
2022-09-09T15:39:03.752Z,41.80
2022-09-09T15:41:32.554Z,42.00
2022-09-09T15:44:00.844Z,42.20
2022-09-09T15:46:38.222Z,42.20
2022-09-09T15:49:07.089Z,42.10
2022-09-09T15:51:49.257Z,41.70
2022-09-09T15:54:19.070Z,41.20
2022-09-09T15:56:51.574Z,40.90
2022-09-09T15:59:18.430Z,40.60
2022-09-09T16:01:45.598Z,40.30
2022-09-09T16:04:12.640Z,40.20
2022-09-09T16:06:40.031Z,39.80
2022-09-09T16:09:08.523Z,39.30
2022-09-09T16:11:37.618Z,38.70
2022-09-09T16:14:06.338Z,38.00
2022-09-09T16:16:33.619Z,37.60
2022-09-09T16:19:03.935Z,36.90
2022-09-09T16:21:56.712Z,36.40
2022-09-09T16:24:24.572Z,35.70
2022-09-09T16:26:54.161Z,35.00
2022-09-09T16:29:22.386Z,34.20
2022-09-09T16:31:49.872Z,33.30
2022-09-09T16:34:18.533Z,32.40
2022-09-09T16:36:46.075Z,31.70
2022-09-09T16:39:14.825Z,31.10
2022-09-09T16:41:43.036Z,30.70
2022-09-09T16:44:11.373Z,30.40
2022-09-09T16:46:40.476Z,30.20
2022-09-09T16:49:13.069Z,29.90
2022-09-09T16:51:42.650Z,29.80
2022-09-09T16:54:10.605Z,29.60
2022-09-09T16:56:42.160Z,29.60
2022-09-09T16:59:14.734Z,29.50
2022-09-09T17:01:44.160Z,29.40
2022-09-09T17:04:21.089Z,29.30
2022-09-09T17:06:52.509Z,29.30
2022-09-09T17:09:20.345Z,29.20
2022-09-09T17:11:48.363Z,29.10
2022-09-09T17:14:17.537Z,29.00
2022-09-09T17:16:44.627Z,28.90
2022-09-09T17:19:12.194Z,28.90
2022-09-09T17:21:54.655Z,28.90
2022-09-09T17:24:29.786Z,28.80
2022-09-09T17:26:56.430Z,28.60
2022-09-09T17:29:23.209Z,28.50
2022-09-09T17:31:49.913Z,28.50
2022-09-09T17:34:16.604Z,28.40
2022-09-09T17:36:43.244Z,28.30
2022-09-09T17:39:10.023Z,28.20
2022-09-09T17:41:40.742Z,28.10
2022-09-09T17:46:42.852Z,27.80
2022-09-09T17:49:15.813Z,27.80
2022-09-09T17:51:43.885Z,27.80
2022-09-09T17:54:13.909Z,27.80
2022-09-09T17:56:42.166Z,27.90
2022-09-09T17:59:10.400Z,27.80
2022-09-09T18:01:39.575Z,27.80
2022-09-09T18:04:09.364Z,27.60
2022-09-09T18:06:38.684Z,27.60
2022-09-09T18:09:08.290Z,27.60
2022-09-09T18:11:39.872Z,27.50
2022-09-09T18:14:06.834Z,27.40
2022-09-09T18:16:36.372Z,27.40
2022-09-09T18:19:12.435Z,27.30
2022-09-09T18:21:39.580Z,27.30
2022-09-09T18:24:08.077Z,27.20
2022-09-09T18:26:35.655Z,27.20
2022-09-09T18:29:05.823Z,27.10
2022-09-09T18:31:32.931Z,27.10
2022-09-09T18:34:02.804Z,27.00
2022-09-09T18:36:36.243Z,26.90
2022-09-09T18:39:05.180Z,26.90
2022-09-09T18:41:35.123Z,26.90
2022-09-09T18:44:05.603Z,26.90
2022-09-09T18:46:36.947Z,26.90
2022-09-09T18:49:05.745Z,26.90
2022-09-09T18:51:35.218Z,26.90
2022-09-09T18:54:04.901Z,26.80
2022-09-09T18:56:32.143Z,26.70
2022-09-09T18:59:03.517Z,26.70
2022-09-09T19:01:30.736Z,26.70
2022-09-09T19:03:57.668Z,26.60
2022-09-09T19:06:27.956Z,26.60
2022-09-09T19:09:03.717Z,26.50
2022-09-09T19:11:32.381Z,26.50
2022-09-09T19:14:01.928Z,26.50
2022-09-09T19:16:31.043Z,26.40
2022-09-09T19:19:04.357Z,26.40
2022-09-09T19:21:38.033Z,26.30
2022-09-09T19:24:06.666Z,26.10
2022-09-09T19:26:40.544Z,26.10
2022-09-09T19:29:10.134Z,26.10
2022-09-09T19:31:37.828Z,26.10
2022-09-09T19:34:05.052Z,26.10
2022-09-09T19:36:32.119Z,26.10
2022-09-09T19:38:59.043Z,25.90
2022-09-09T19:41:27.616Z,25.80
2022-09-09T19:44:01.727Z,25.90
2022-09-09T19:46:33.307Z,25.90
2022-09-09T19:49:01.347Z,25.90
2022-09-09T19:51:29.619Z,25.90
2022-09-09T19:54:03.737Z,25.90
2022-09-09T19:56:32.836Z,25.80
2022-09-09T19:59:00.572Z,25.80
2022-09-09T20:01:35.494Z,25.80
2022-09-09T20:04:06.827Z,25.70
2022-09-09T20:06:39.149Z,25.70
2022-09-09T20:09:07.795Z,25.70
2022-09-09T20:11:34.880Z,25.70
2022-09-09T20:14:01.947Z,25.60
2022-09-09T20:16:30.524Z,25.60
2022-09-09T20:19:02.076Z,25.50
2022-09-09T20:21:33.411Z,25.50
2022-09-09T20:24:02.461Z,25.40
2022-09-09T20:26:35.102Z,25.40
2022-09-09T20:29:05.443Z,25.30
2022-09-09T20:31:36.294Z,25.30
2022-09-09T20:34:06.036Z,25.30
2022-09-09T20:36:35.474Z,25.20
2022-09-09T20:39:04.399Z,25.20
2022-09-09T20:41:32.747Z,25.20
2022-09-09T20:44:09.308Z,25.20
2022-09-09T20:46:38.672Z,25.20
2022-09-09T20:49:07.976Z,25.20
2022-09-09T20:51:35.799Z,25.20
2022-09-09T20:54:05.589Z,25.20
2022-09-09T20:56:40.721Z,25.10
2022-09-09T20:59:11.392Z,25.10
2022-09-09T21:01:39.379Z,25.20
2022-09-09T21:04:06.676Z,25.20
2022-09-09T21:06:33.395Z,25.20
2022-09-09T21:09:00.063Z,25.20
2022-09-09T21:11:26.832Z,25.10
2022-09-09T21:13:53.583Z,25.10
2022-09-09T21:16:21.228Z,25.00
2022-09-09T21:18:49.256Z,25.00
2022-09-09T21:21:19.198Z,25.00
2022-09-09T21:23:45.915Z,24.90
2022-09-09T21:26:12.977Z,25.00
2022-09-09T21:28:39.830Z,25.00
2022-09-09T21:31:06.918Z,25.00
2022-09-09T21:33:34.321Z,25.00
2022-09-09T21:36:05.936Z,24.90
2022-09-09T21:38:34.125Z,24.80
2022-09-09T21:41:06.050Z,24.80
2022-09-09T21:43:33.427Z,24.90
2022-09-09T21:46:03.014Z,24.90
2022-09-09T21:48:29.965Z,24.70
2022-09-09T21:51:01.432Z,24.70
2022-09-09T21:53:28.180Z,24.80
2022-09-09T21:56:06.748Z,24.80
2022-09-09T21:58:34.891Z,24.70
2022-09-09T22:01:02.573Z,24.70
2022-09-09T22:03:29.226Z,24.70
2022-09-09T22:05:55.865Z,24.60
2022-09-09T22:08:22.650Z,24.60
2022-09-09T22:10:49.403Z,24.60
2022-09-09T22:13:17.788Z,24.60
2022-09-09T22:15:45.945Z,24.60
2022-09-09T22:18:15.862Z,24.60
2022-09-09T22:20:44.617Z,24.60
2022-09-09T22:23:12.832Z,24.50
2022-09-09T22:25:40.337Z,24.50
2022-09-09T22:28:09.169Z,24.60
2022-09-09T22:30:36.138Z,24.50
2022-09-09T22:33:02.852Z,24.60
2022-09-09T22:35:29.477Z,24.50
2022-09-09T22:37:57.004Z,24.40
2022-09-09T22:40:24.004Z,24.50
2022-09-09T22:42:52.977Z,24.40
2022-09-09T22:45:20.860Z,24.20
2022-09-09T22:47:47.939Z,24.30
2022-09-09T22:50:14.766Z,24.30
2022-09-09T22:52:41.396Z,24.30
2022-09-09T22:55:09.341Z,24.30
2022-09-09T22:57:36.519Z,24.30
2022-09-09T23:00:07.640Z,24.30
2022-09-09T23:02:37.464Z,24.20
2022-09-09T23:05:09.004Z,24.20
2022-09-09T23:07:53.785Z,24.10
2022-09-09T23:10:21.012Z,23.90
2022-09-09T23:12:48.394Z,23.80
2022-09-09T23:15:15.066Z,23.80
2022-09-09T23:17:41.798Z,23.70
2022-09-09T23:20:10.429Z,23.40
2022-09-09T23:22:39.076Z,23.40
2022-09-09T23:25:06.750Z,23.40
2022-09-09T23:27:33.556Z,23.30
2022-09-09T23:30:01.356Z,23.30
2022-09-09T23:32:28.178Z,23.40
2022-09-09T23:34:54.896Z,23.20
2022-09-09T23:37:21.515Z,23.20
2022-09-09T23:39:48.462Z,23.30
2022-09-09T23:42:15.296Z,23.30
2022-09-09T23:44:42.176Z,23.20
2022-09-09T23:47:09.398Z,23.10
2022-09-09T23:49:39.195Z,22.80
2022-09-09T23:52:06.718Z,22.70
2022-09-09T23:54:34.659Z,22.60
2022-09-09T23:57:03.110Z,22.50
2022-09-09T23:59:31.078Z,22.60
